Time;durP1;ratioP1;P1;durP2;ratioP2;P2;SDS_P1;SDS_P2;PMS_P1;PMS_P2;Temp;Humidity;BMP_temperature;BMP_pressure;BME280_temperature;BME280_humidity;BME280_pressure;Samples;Min_cycle;Max_cycle;Signal;HPM_P1;HPM_P2
2021/03/25 00:02:14;;;;;;;;;;;;;;;-0.48;52.41;96946.98;1753587;80;20216;-53
2021/03/25 00:04:42;;;;;;;;;;;;;;;-0.56;52.39;96945.45;1758480;80;21384;-54
2021/03/25 00:07:09;;;;;;;;;;;;;;;-0.64;52.71;96949.86;1765905;80;20528;-53
2021/03/25 00:09:39;;;;;;;;;;;;;;;-0.66;52.64;96945.24;1752513;80;20272;-53
2021/03/25 00:12:09;;;;;;;;;;;;;;;-0.70;52.73;96941.06;1765335;80;20238;-53
2021/03/25 00:14:36;;;;;;;;;;;;;;;-0.77;52.94;96944.17;1770503;80;20276;-53
2021/03/25 00:17:06;;;;;;;;;;;;;;;-0.82;53.01;96943.42;1757304;80;20632;-53
2021/03/25 00:19:35;;;;;;;;;;;;;;;-0.80;53.11;96935.75;1768238;80;20227;-53
2021/03/25 00:22:04;;;;;;;;;;;;;;;-0.82;52.98;96933.23;1735863;80;20220;-53
2021/03/25 00:24:31;;;;;;;;;;;;;;;-0.88;53.22;96932.07;1751247;80;20591;-53
2021/03/25 00:26:59;;;;;;;;;;;;;;;-0.91;53.34;96936.39;1754814;80;20221;-55
2021/03/25 00:29:29;;;;;;;;;;;;;;;-0.88;53.33;96932.07;1751306;80;22789;-54
2021/03/25 00:31:56;;;;;;;;;;;;;;;-0.88;53.17;96938.44;1778304;80;20262;-52
2021/03/25 00:34:24;;;;;;;;;;;;;;;-0.88;53.37;96938.88;1774607;80;20466;-52
2021/03/25 00:36:52;;;;;;;;;;;;;;;-0.91;53.46;96930.02;1750950;80;20493;-53
2021/03/25 00:39:19;;;;;;;;;;;;;;;-0.96;53.38;96936.03;1750798;82;20497;-53
2021/03/25 00:41:47;;;;;;;;;;;;;;;-0.99;53.39;96935.26;1756675;80;22844;-54
2021/03/25 00:44:15;;;;;;;;;;;;;;;-1.04;53.45;96939.16;1779055;80;20223;-52
2021/03/25 00:46:43;;;;;;;;;;;;;;;-1.07;53.52;96934.16;1778427;80;20222;-54
2021/03/25 00:49:11;;;;;;;;;;;;;;;-1.07;53.62;96936.70;1755237;80;20217;-54
2021/03/25 00:51:39;;;;;;;;;;;;;;;-1.11;53.59;96937.61;1774006;80;20230;-54
2021/03/25 00:54:07;;;;;;;;;;;;;;;-1.15;53.57;96935.55;1776684;80;22212;-52
2021/03/25 00:56:37;;;;;;;;;;;;;;;-1.17;53.72;96933.89;1775392;80;20210;-52
2021/03/25 00:59:05;;;;;;;;;;;;;;;-1.20;53.84;96939.04;1762627;80;20219;-53
2021/03/25 01:01:32;;;;;;;;;;;;;;;-1.20;53.82;96939.04;1775781;80;20493;-53
2021/03/25 01:04:02;;;;;;;;;;;;;;;-1.21;53.71;96934.83;1772951;80;20219;-53
2021/03/25 01:06:30;;;;;;;;;;;;;;;-1.27;53.92;96939.58;1763191;80;20517;-53
2021/03/25 01:08:58;;;;;;;;;;;;;;;-1.29;53.96;96936.23;1775494;80;20221;-53
2021/03/25 01:11:27;;;;;;;;;;;;;;;-1.34;54.04;96931.22;1750955;80;20221;-52
2021/03/25 01:14:01;;;;;;;;;;;;;;;-1.31;54.17;96929.89;1752404;80;20211;-53
2021/03/25 01:16:33;;;;;;;;;;;;;;;-1.33;54.21;96930.36;1770268;80;20214;-52
2021/03/25 01:19:02;;;;;;;;;;;;;;;-1.35;54.20;96927.02;1767404;80;21198;-52
2021/03/25 01:21:31;;;;;;;;;;;;;;;-1.35;54.20;96923.19;1757509;80;20268;-52
2021/03/25 01:23:59;;;;;;;;;;;;;;;-1.39;54.22;96926.64;1755688;80;20237;-53
2021/03/25 01:26:28;;;;;;;;;;;;;;;-1.50;54.35;96924.30;1766003;80;20224;-53
2021/03/25 01:29:03;;;;;;;;;;;;;;;-1.57;54.68;96921.44;1753408;80;20221;-53
2021/03/25 01:31:29;;;;;;;;;;;;;;;-1.62;54.82;96926.22;1766609;80;21387;-54
2021/03/25 01:33:58;;;;;;;;;;;;;;;-1.69;55.19;96926.31;1756918;80;20609;-54
2021/03/25 01:36:27;;;;;;;;;;;;;;;-1.70;55.29;96925.06;1758015;81;20292;-54
2021/03/25 01:38:56;;;;;;;;;;;;;;;-1.69;55.38;96927.58;1737378;81;20490;-54
2021/03/25 01:41:30;;;;;;;;;;;;;;;-1.67;55.03;96921.20;1751950;81;20232;-54
2021/03/25 01:43:58;;;;;;;;;;;;;;;-1.72;55.21;96925.52;1730720;81;21381;-54
2021/03/25 01:46:32;;;;;;;;;;;;;;;-1.72;55.45;96919.16;1737084;81;20221;-54
2021/03/25 01:49:10;;;;;;;;;;;;;;;-1.70;55.23;96919.97;1743470;81;20233;-54
2021/03/25 01:51:55;;;;;;;;;;;;;;;-1.65;55.03;96910.99;1736492;81;20227;-55
2021/03/25 01:54:37;;;;;;;;;;;;;;;-1.71;55.03;96910.23;1773491;81;20223;-53
2021/03/25 01:57:29;;;;;;;;;;;;;;;-1.70;55.19;96911.06;1752904;81;20731;-53
2021/03/25 02:00:09;;;;;;;;;;;;;;;-1.68;55.15;96910.19;1761568;81;20624;-53
2021/03/25 02:02:58;;;;;;;;;;;;;;;-1.63;55.03;96914.34;1735847;81;20225;-54
2021/03/25 02:05:38;;;;;;;;;;;;;;;-1.67;54.85;96912.30;1707756;82;20219;-55
2021/03/25 02:08:15;;;;;;;;;;;;;;;-1.74;54.91;96912.83;1743494;82;20237;-55
2021/03/25 02:10:52;;;;;;;;;;;;;;;-1.78;54.94;96919.26;1760075;81;22138;-53
2021/03/25 02:13:33;;;;;;;;;;;;;;;-1.89;55.08;96914.36;1742920;81;20249;-54
2021/03/25 02:16:15;;;;;;;;;;;;;;;-1.93;55.25;96917.36;1748826;81;20325;-55
2021/03/25 02:19:24;;;;;;;;;;;;;;;-1.98;55.32;96915.77;1672546;85;20241;-53
2021/03/25 02:22:13;;;;;;;;;;;;;;;-2.02;55.46;96921.34;1651408;86;20236;-54
2021/03/25 02:24:44;;;;;;;;;;;;;;;-2.07;55.50;96916.31;1731112;82;21399;-52
2021/03/25 02:27:32;;;;;;;;;;;;;;;-2.14;55.53;96915.15;1736047;82;20237;-52
2021/03/25 02:30:11;;;;;;;;;;;;;;;-2.18;55.70;96909.72;1739288;82;20235;-55
2021/03/25 02:32:49;;;;;;;;;;;;;;;-2.16;55.71;96909.25;1742902;82;20249;-53
2021/03/25 02:35:22;;;;;;;;;;;;;;;-2.14;55.82;96913.47;1747977;80;20216;-55
2021/03/25 02:37:53;;;;;;;;;;;;;;;-2.11;55.52;96912.56;1750235;81;21371;-55
2021/03/25 02:40:28;;;;;;;;;;;;;;;-2.08;55.55;96916.34;1762307;80;20253;-54
2021/03/25 02:43:06;;;;;;;;;;;;;;;-2.07;55.25;96911.23;1831638;76;20255;-54
2021/03/25 02:45:37;;;;;;;;;;;;;;;-2.17;55.42;96908.42;1754669;79;20269;-54
2021/03/25 02:48:15;;;;;;;;;;;;;;;-2.29;55.63;96913.23;1753859;79;21205;-54
2021/03/25 02:50:54;;;;;;;;;;;;;;;-2.40;55.92;96910.03;1766551;79;20159;-51
2021/03/25 02:53:33;;;;;;;;;;;;;;;-2.48;56.12;96913.11;1765408;79;20235;-52
2021/03/25 02:56:06;;;;;;;;;;;;;;;-2.51;56.29;96913.98;1797075;79;20209;-54
2021/03/25 02:58:34;;;;;;;;;;;;;;;-2.46;56.25;96916.02;1799433;78;20209;-54
2021/03/25 03:01:04;;;;;;;;;;;;;;;-2.47;56.28;96914.77;1740736;80;21123;-54
2021/03/25 03:03:37;;;;;;;;;;;;;;;-2.51;56.17;96919.06;1774589;80;20506;-54
2021/03/25 03:06:07;;;;;;;;;;;;;;;-2.55;56.22;96908.95;1766594;80;20219;-54
2021/03/25 03:08:39;;;;;;;;;;;;;;;-2.62;56.63;96906.92;1741127;81;20226;-53
2021/03/25 03:11:23;;;;;;;;;;;;;;;-2.64;56.68;96897.22;1755061;80;20225;-53
2021/03/25 03:13:54;;;;;;;;;;;;;;;-2.56;56.59;96883.98;1734549;80;21204;-53
2021/03/25 03:16:25;;;;;;;;;;;;;;;-2.51;56.41;96884.76;1764279;80;20229;-53
2021/03/25 03:19:11;;;;;;;;;;;;;;;-2.46;56.30;96898.23;1783018;80;20237;-52
2021/03/25 03:21:42;;;;;;;;;;;;;;;-2.49;56.18;96889.38;1757077;79;20221;-54
2021/03/25 03:24:18;;;;;;;;;;;;;;;-2.46;56.31;96885.53;1785558;80;20219;-53
2021/03/25 03:27:15;;;;;;;;;;;;;;;-2.43;56.26;96887.20;1782417;80;21380;-54
2021/03/25 03:29:44;;;;;;;;;;;;;;;-2.36;55.97;96890.49;1707094;82;20660;-55
2021/03/25 03:32:35;;;;;;;;;;;;;;;-2.35;55.87;96895.55;1735994;82;20224;-55
2021/03/25 03:35:11;;;;;;;;;;;;;;;-2.34;55.85;96888.76;1691210;82;20219;-53
2021/03/25 03:37:42;;;;;;;;;;;;;;;-2.44;55.76;96896.94;1710172;82;20241;-55
2021/03/25 03:40:21;;;;;;;;;;;;;;;-2.55;55.85;96903.46;1736899;82;21213;-53
2021/03/25 03:42:50;;;;;;;;;;;;;;;-2.69;56.24;96892.64;1728984;81;20224;-55
2021/03/25 03:45:18;;;;;;;;;;;;;;;-2.77;56.46;96894.83;1722943;82;20217;-54
2021/03/25 03:47:48;;;;;;;;;;;;;;;-2.90;56.81;96894.58;1728075;82;20232;-54
2021/03/25 03:50:20;;;;;;;;;;;;;;;-2.99;57.01;96897.25;1739014;82;20499;-55
2021/03/25 03:52:49;;;;;;;;;;;;;;;-3.03;56.97;96901.94;1730801;80;23043;-53
2021/03/25 03:55:19;;;;;;;;;;;;;;;-3.05;57.10;96907.03;1723034;82;20516;-53
2021/03/25 03:57:59;;;;;;;;;;;;;;;-3.08;57.13;96890.56;1720402;82;20225;-53
2021/03/25 04:00:35;;;;;;;;;;;;;;;-3.06;57.09;96901.97;1720297;82;20213;-52
2021/03/25 04:03:11;;;;;;;;;;;;;;;-3.03;57.12;96904.47;1705694;82;20227;-52
2021/03/25 04:06:15;;;;;;;;;;;;;;;-3.03;56.91;96901.50;1736337;80;21391;-54
2021/03/25 04:09:07;;;;;;;;;;;;;;;-2.99;56.71;96900.62;1730265;82;20248;-52
2021/03/25 04:11:46;;;;;;;;;;;;;;;-2.96;56.75;96901.02;1726123;82;20246;-53
2021/03/25 04:14:20;;;;;;;;;;;;;;;-2.85;56.67;96899.61;1719200;82;20242;-52
2021/03/25 04:17:00;;;;;;;;;;;;;;;-2.71;56.11;96902.81;1845136;76;20243;-53
2021/03/25 04:19:37;;;;;;;;;;;;;;;-2.75;55.91;96900.33;1811053;79;20244;-54
2021/03/25 04:22:21;;;;;;;;;;;;;;;-2.76;56.45;96903.31;1811899;77;21256;-54
2021/03/25 04:24:57;;;;;;;;;;;;;;;-2.60;56.17;96903.52;1774758;78;20184;-54
2021/03/25 04:27:28;;;;;;;;;;;;;;;-2.58;55.11;96900.95;1788039;77;20258;-54
2021/03/25 04:30:00;;;;;;;;;;;;;;;-2.56;55.35;96900.94;1800277;77;20246;-54
2021/03/25 04:32:27;;;;;;;;;;;;;;;-2.46;54.66;96897.41;1792660;77;20282;-54
2021/03/25 04:34:55;;;;;;;;;;;;;;;-2.51;54.66;96899.17;1792868;79;23519;-54
2021/03/25 04:37:24;;;;;;;;;;;;;;;-2.64;54.69;96901.03;1796275;77;20178;-53
2021/03/25 04:39:52;;;;;;;;;;;;;;;-2.73;54.79;96899.87;1795682;79;20221;-55
2021/03/25 04:42:20;;;;;;;;;;;;;;;-2.81;55.06;96900.82;1795787;77;20488;-54
2021/03/25 04:44:49;;;;;;;;;;;;;;;-2.90;55.58;96906.00;1793744;77;20238;-54
2021/03/25 04:47:27;;;;;;;;;;;;;;;-2.93;55.49;96907.74;1802712;77;21205;-54
2021/03/25 04:50:13;;;;;;;;;;;;;;;-2.94;55.65;96906.05;1796055;79;20294;-54
2021/03/25 04:52:41;;;;;;;;;;;;;;;-2.84;55.67;96903.39;1795826;77;21004;-54
2021/03/25 04:55:19;;;;;;;;;;;;;;;-2.50;55.09;96906.78;1792909;77;20302;-54
2021/03/25 04:57:57;;;;;;;;;;;;;;;-1.88;53.70;96900.77;1755567;79;20285;-53
2021/03/25 05:00:30;;;;;;;;;;;;;;;-1.02;51.11;96909.43;1749844;81;21378;-54
2021/03/25 05:03:02;;;;;;;;;;;;;;;-0.29;49.49;96903.66;1744947;79;20641;-54
2021/03/25 05:05:30;;;;;;;;;;;;;;;0.38;47.80;96902.08;1727389;80;20285;-55
2021/03/25 05:08:00;;;;;;;;;;;;;;;0.94;45.65;96905.31;1748463;79;20226;-55
2021/03/25 05:10:37;;;;;;;;;;;;;;;1.36;45.22;96903.28;1756439;79;20282;-52
2021/03/25 05:13:06;;;;;;;;;;;;;;;1.82;44.49;96900.63;1748156;80;22352;-54
2021/03/25 05:15:34;;;;;;;;;;;;;;;2.30;43.18;96905.55;1752623;79;20230;-52
2021/03/25 05:18:05;;;;;;;;;;;;;;;2.65;41.55;96906.10;1754409;81;20232;-54
2021/03/25 05:20:41;;;;;;;;;;;;;;;2.86;40.28;96909.66;1750139;79;20273;-52
2021/03/25 05:23:30;;;;;;;;;;;;;;;2.90;40.39;96921.47;1756574;79;20902;-52
2021/03/25 05:26:09;;;;;;;;;;;;;;;3.16;40.52;96910.75;1747833;81;21463;-52
2021/03/25 05:28:43;;;;;;;;;;;;;;;3.76;39.26;96900.00;1744948;79;20295;-52
2021/03/25 05:31:12;;;;;;;;;;;;;;;4.27;38.20;96914.24;1751472;79;20232;-51
2021/03/25 05:33:40;;;;;;;;;;;;;;;4.55;37.09;96916.98;1754650;81;20527;-51
2021/03/25 05:36:10;;;;;;;;;;;;;;;4.78;36.68;96918.13;1750140;81;20234;-52
2021/03/25 05:38:38;;;;;;;;;;;;;;;5.00;36.68;96927.53;1753961;79;21455;-55
2021/03/25 05:41:16;;;;;;;;;;;;;;;5.68;35.54;96924.55;1753451;79;20790;-51
2021/03/25 05:44:04;;;;;;;;;;;;;;;6.30;34.47;96920.41;1749452;81;20223;-51
2021/03/25 05:46:59;;;;;;;;;;;;;;;6.78;34.41;96927.48;1751086;79;20236;-53
2021/03/25 05:49:48;;;;;;;;;;;;;;;7.34;32.61;96931.95;1747520;79;20285;-57
2021/03/25 05:52:28;;;;;;;;;;;;;;;7.88;31.84;96929.58;1748863;81;22171;-51
2021/03/25 05:55:20;;;;;;;;;;;;;;;8.37;30.23;96942.38;1759640;79;20587;-51
2021/03/25 05:58:07;;;;;;;;;;;;;;;8.44;30.44;96944.20;1751649;81;20303;-53
2021/03/25 06:00:44;;;;;;;;;;;;;;;8.61;30.01;96947.93;1756636;79;20218;-52
2021/03/25 06:03:13;;;;;;;;;;;;;;;8.93;29.50;96949.59;1751074;79;20226;-51
2021/03/25 06:05:48;;;;;;;;;;;;;;;8.96;29.01;96957.17;1751086;81;21219;-52
2021/03/25 06:08:43;;;;;;;;;;;;;;;8.92;28.95;96955.23;1733138;79;20267;-52
2021/03/25 06:11:26;;;;;;;;;;;;;;;9.21;29.54;96955.30;1762584;79;20279;-52
2021/03/25 06:14:23;;;;;;;;;;;;;;;10.17;28.51;96944.30;1759315;79;20231;-51
2021/03/25 06:16:55;;;;;;;;;;;;;;;10.85;27.44;96950.72;1754182;80;21239;-51
2021/03/25 06:19:27;;;;;;;;;;;;;;;11.55;25.96;96946.07;1740040;80;21378;-52
2021/03/25 06:22:04;;;;;;;;;;;;;;;11.71;25.17;96951.87;1742905;81;20543;-51
2021/03/25 06:24:48;;;;;;;;;;;;;;;11.35;25.54;96948.73;1739374;81;20221;-52
2021/03/25 06:27:26;;;;;;;;;;;;;;;11.05;25.58;96952.44;1743285;80;20258;-53
2021/03/25 06:29:56;;;;;;;;;;;;;;;11.00;25.93;96948.02;1742251;81;20219;-52
2021/03/25 06:32:45;;;;;;;;;;;;;;;10.96;25.80;96943.50;1751404;81;21211;-52
2021/03/25 06:35:38;;;;;;;;;;;;;;;10.95;26.04;96937.94;1746081;81;20231;-52
2021/03/25 06:38:15;;;;;;;;;;;;;;;11.09;25.60;96939.63;1668746;84;20412;-53
2021/03/25 06:41:01;;;;;;;;;;;;;;;11.03;25.79;96946.52;1727366;80;20246;-53
2021/03/25 06:43:39;;;;;;;;;;;;;;;11.24;25.37;96945.55;1754275;81;20241;-51
2021/03/25 06:46:39;;;;;;;;;;;;;;;11.10;25.55;96944.34;1738389;80;22296;-51
2021/03/25 06:49:23;;;;;;;;;;;;;;;11.42;24.96;96940.88;1741057;81;20247;-53
2021/03/25 06:51:53;;;;;;;;;;;;;;;11.22;25.21;96938.34;1746490;81;20218;-50
2021/03/25 06:54:25;;;;;;;;;;;;;;;11.66;25.44;96934.91;1737799;81;20234;-52
2021/03/25 06:56:55;;;;;;;;;;;;;;;12.23;24.37;96938.28;1748862;81;20242;-52
2021/03/25 06:59:33;;;;;;;;;;;;;;;12.60;24.49;96938.68;1743957;81;21277;-50
2021/03/25 07:02:11;;;;;;;;;;;;;;;13.17;23.45;96943.11;1727799;81;20237;-52
2021/03/25 07:04:42;;;;;;;;;;;;;;;13.42;23.01;96948.64;1734953;80;20502;-52
2021/03/25 07:07:26;;;;;;;;;;;;;;;13.41;23.01;96953.97;1745346;80;20272;-52
2021/03/25 07:09:56;;;;;;;;;;;;;;;13.40;23.42;96949.69;1758432;81;20499;-53
2021/03/25 07:12:40;;;;;;;;;;;;;;;13.80;22.83;96940.12;1751256;81;21201;-53
2021/03/25 07:15:19;;;;;;;;;;;;;;;14.05;22.92;96952.06;1756289;81;20212;-53
2021/03/25 07:17:46;;;;;;;;;;;;;;;14.91;22.41;96950.86;1762493;81;20233;-52
2021/03/25 07:20:26;;;;;;;;;;;;;;;15.79;21.36;96960.06;1760568;79;20222;-52
2021/03/25 07:23:04;;;;;;;;;;;;;;;16.08;20.54;96959.31;1759547;79;20256;-52
2021/03/25 07:25:35;;;;;;;;;;;;;;;16.24;20.25;96949.65;1743117;81;21203;-51
2021/03/25 07:28:03;;;;;;;;;;;;;;;16.44;20.37;96951.81;1748094;79;20218;-51
2021/03/25 07:30:50;;;;;;;;;;;;;;;16.96;20.48;96952.05;1758500;81;20277;-52
2021/03/25 07:33:19;;;;;;;;;;;;;;;17.91;19.22;96954.25;1742193;81;20221;-52
2021/03/25 07:35:57;;;;;;;;;;;;;;;18.72;18.14;96948.23;1762775;81;20220;-54
2021/03/25 07:38:37;;;;;;;;;;;;;;;19.31;17.45;96948.57;1763041;81;22201;-52
2021/03/25 07:41:22;;;;;;;;;;;;;;;19.94;16.97;96950.58;1746457;81;20318;-52
2021/03/25 07:43:53;;;;;;;;;;;;;;;20.70;16.15;96950.15;1742052;81;20223;-51
2021/03/25 07:46:30;;;;;;;;;;;;;;;21.29;15.41;96953.94;1773696;81;20239;-51
2021/03/25 07:49:15;;;;;;;;;;;;;;;21.62;15.37;96949.95;1749729;81;20218;-51
2021/03/25 07:52:02;;;;;;;;;;;;;;;22.07;14.92;96959.03;1747423;79;22273;-52
2021/03/25 07:54:39;;;;;;;;;;;;;;;22.12;14.85;96947.95;1776927;79;20149;-52
2021/03/25 07:57:10;;;;;;;;;;;;;;;22.48;14.99;96950.92;1765831;80;20231;-51
2021/03/25 07:59:47;;;;;;;;;;;;;;;22.95;14.80;96957.06;1754435;81;20500;-51
2021/03/25 08:02:31;;;;;;;;;;;;;;;23.43;14.41;96952.36;1771763;80;20219;-52
2021/03/25 08:05:28;;;;;;;;;;;;;;;23.92;13.95;96961.66;1740266;81;22264;-51
2021/03/25 08:07:57;;;;;;;;;;;;;;;24.06;13.95;96963.48;1758524;81;20244;-52
2021/03/25 08:10:41;;;;;;;;;;;;;;;24.35;13.65;96959.13;1760614;81;20493;-51
2021/03/25 08:13:22;;;;;;;;;;;;;;;24.59;13.36;96963.30;1743142;81;20226;-51
2021/03/25 08:15:53;;;;;;;;;;;;;;;24.60;13.07;96969.42;1742937;81;20495;-51
2021/03/25 08:18:42;;;;;;;;;;;;;;;24.48;13.44;96970.39;1743162;82;22284;-52
2021/03/25 08:21:30;;;;;;;;;;;;;;;24.54;13.25;96968.80;1743000;82;20739;-52
2021/03/25 08:24:20;;;;;;;;;;;;;;;24.45;13.23;96966.78;1712376;81;20219;-51
2021/03/25 08:27:17;;;;;;;;;;;;;;;24.48;13.20;96967.73;1748184;81;20506;-52
2021/03/25 08:30:03;;;;;;;;;;;;;;;24.74;12.92;96959.27;1773378;81;20511;-52
2021/03/25 08:32:41;;;;;;;;;;;;;;;24.78;12.89;96959.70;1743064;81;20501;-52
2021/03/25 08:35:18;;;;;;;;;;;;;;;24.58;12.34;96958.19;1743027;82;20234;-51
2021/03/25 08:38:06;;;;;;;;;;;;;;;24.29;12.69;96963.02;1743053;81;20226;-52
2021/03/25 08:40:46;;;;;;;;;;;;;;;24.20;12.67;96955.69;1743047;82;20222;-51
2021/03/25 08:43:21;;;;;;;;;;;;;;;24.22;12.83;96955.80;1766950;81;20231;-52
2021/03/25 08:45:55;;;;;;;;;;;;;;;24.16;12.78;96952.59;1772922;81;21343;-51
2021/03/25 08:48:39;;;;;;;;;;;;;;;24.04;12.73;96952.22;1773577;81;20228;-52
2021/03/25 08:51:16;;;;;;;;;;;;;;;24.01;12.38;96947.79;1773632;79;20503;-52
2021/03/25 08:53:53;;;;;;;;;;;;;;;23.86;12.34;96946.48;1743624;81;20216;-52
2021/03/25 08:56:49;;;;;;;;;;;;;;;23.60;12.32;96954.37;1773374;81;20287;-54
2021/03/25 08:59:27;;;;;;;;;;;;;;;23.34;12.19;96958.77;1743762;81;21217;-53
2021/03/25 09:02:13;;;;;;;;;;;;;;;23.13;12.57;96957.60;1743010;82;20214;-51
2021/03/25 09:04:44;;;;;;;;;;;;;;;22.97;12.43;96953.73;1743071;82;20300;-51
2021/03/25 09:07:19;;;;;;;;;;;;;;;22.70;12.82;96949.31;1891299;76;20222;-51
2021/03/25 09:09:49;;;;;;;;;;;;;;;22.47;13.09;96946.66;1852661;77;20241;-52
2021/03/25 09:12:22;;;;;;;;;;;;;;;22.39;13.17;96950.66;1821555;77;22249;-52
2021/03/25 09:14:49;;;;;;;;;;;;;;;22.30;13.24;96949.05;1790391;79;20215;-52
2021/03/25 09:17:19;;;;;;;;;;;;;;;22.53;13.37;96945.12;1819267;79;20523;-52
2021/03/25 09:19:49;;;;;;;;;;;;;;;22.80;13.27;96942.47;1819322;79;20508;-52
2021/03/25 09:22:38;;;;;;;;;;;;;;;22.94;13.29;96950.12;1817758;78;20129;-52
2021/03/25 09:25:26;;;;;;;;;;;;;;;23.13;13.19;96939.59;1813212;79;21136;-52
2021/03/25 09:28:01;;;;;;;;;;;;;;;23.28;13.25;96938.30;1806641;77;20149;-54
2021/03/25 09:30:35;;;;;;;;;;;;;;;23.32;13.18;96932.46;1799656;79;20220;-52
2021/03/25 09:33:40;;;;;;;;;;;;;;;23.47;12.93;96932.48;1812318;77;20251;-52
2021/03/25 09:36:21;;;;;;;;;;;;;;;23.48;13.45;96931.45;1819225;79;20232;-51
2021/03/25 09:39:00;;;;;;;;;;;;;;;23.58;13.29;96931.70;1819198;79;20137;-51
2021/03/25 09:41:32;;;;;;;;;;;;;;;23.63;13.20;96930.14;1819437;77;20208;-52
2021/03/25 09:44:15;;;;;;;;;;;;;;;23.57;12.86;96937.51;1835881;77;20231;-52
2021/03/25 09:46:47;;;;;;;;;;;;;;;23.26;12.88;96932.36;1841511;78;20209;-52
2021/03/25 09:49:37;;;;;;;;;;;;;;;23.08;13.07;96936.15;1819237;79;20257;-51
2021/03/25 09:52:14;;;;;;;;;;;;;;;23.02;13.36;96939.47;1819294;79;21194;-52
2021/03/25 09:54:51;;;;;;;;;;;;;;;23.25;13.69;96937.33;1817966;78;20172;-53
2021/03/25 09:57:31;;;;;;;;;;;;;;;23.54;13.25;96931.25;1842522;77;20233;-52
2021/03/25 10:00:08;;;;;;;;;;;;;;;23.59;13.26;96930.70;1852432;77;20218;-51
2021/03/25 10:02:42;;;;;;;;;;;;;;;23.62;12.83;96921.89;1837977;77;20218;-52
2021/03/25 10:05:20;;;;;;;;;;;;;;;23.25;12.61;96919.61;1824634;78;21371;-52
2021/03/25 10:07:48;;;;;;;;;;;;;;;22.66;13.74;96926.84;1819152;78;20215;-51
2021/03/25 10:10:21;;;;;;;;;;;;;;;22.62;13.47;96924.24;1819206;77;20160;-51
2021/03/25 10:13:07;;;;;;;;;;;;;;;22.68;13.48;96927.99;1821706;77;20233;-51
2021/03/25 10:15:42;;;;;;;;;;;;;;;22.62;13.30;96926.89;1824709;78;20237;-51
2021/03/25 10:18:26;;;;;;;;;;;;;;;22.59;13.67;96928.05;1830317;78;20493;-52
2021/03/25 10:21:01;;;;;;;;;;;;;;;22.68;13.51;96926.19;1830432;78;20220;-51
2021/03/25 10:23:47;;;;;;;;;;;;;;;22.76;13.72;96919.52;1842474;77;20106;-52
2021/03/25 10:26:37;;;;;;;;;;;;;;;22.88;13.61;96927.01;1820258;77;20239;-51
2021/03/25 10:29:17;;;;;;;;;;;;;;;22.84;13.74;96919.94;1818715;77;20212;-53
2021/03/25 10:31:51;;;;;;;;;;;;;;;22.87;13.76;96923.55;1818592;77;20232;-51
2021/03/25 10:34:29;;;;;;;;;;;;;;;22.67;13.60;96918.44;1788736;79;20232;-51
2021/03/25 10:37:05;;;;;;;;;;;;;;;22.36;13.68;96917.45;1818494;79;20240;-51
2021/03/25 10:39:35;;;;;;;;;;;;;;;22.00;13.90;96914.48;1850665;77;20281;-51
2021/03/25 10:42:24;;;;;;;;;;;;;;;21.63;14.13;96914.64;1829657;78;20229;-51
2021/03/25 10:44:52;;;;;;;;;;;;;;;21.24;14.22;96910.08;1809100;79;22194;-51
2021/03/25 10:47:22;;;;;;;;;;;;;;;20.87;14.64;96899.08;1822884;77;20236;-52
2021/03/25 10:49:53;;;;;;;;;;;;;;;20.45;14.99;96903.14;1830328;78;20239;-52
2021/03/25 10:52:28;;;;;;;;;;;;;;;20.32;15.34;96903.11;1830558;78;20499;-51
2021/03/25 10:54:59;;;;;;;;;;;;;;;20.27;15.00;96898.00;1838473;77;20220;-51
2021/03/25 10:57:27;;;;;;;;;;;;;;;20.23;14.88;96891.73;1786895;79;21419;-51
2021/03/25 11:00:01;;;;;;;;;;;;;;;19.94;15.69;96893.46;1818407;79;20627;-51
2021/03/25 11:02:32;;;;;;;;;;;;;;;19.52;15.97;96888.97;1777417;80;20487;-52
2021/03/25 11:05:02;;;;;;;;;;;;;;;19.30;15.81;96887.22;1752071;80;20342;-51
2021/03/25 11:07:29;;;;;;;;;;;;;;;19.05;16.15;96875.73;1768135;81;20488;-51
2021/03/25 11:09:59;;;;;;;;;;;;;;;18.56;16.47;96885.84;1725559;80;21393;-52
2021/03/25 11:12:32;;;;;;;;;;;;;;;18.06;16.81;96876.67;1773316;80;20221;-50
2021/03/25 11:15:05;;;;;;;;;;;;;;;17.73;17.02;96881.53;1785053;80;20276;-51
2021/03/25 11:17:36;;;;;;;;;;;;;;;17.50;17.61;96873.67;1742249;81;20500;-51
2021/03/25 11:20:06;;;;;;;;;;;;;;;17.44;17.85;96871.97;1754551;81;20221;-51
2021/03/25 11:22:34;;;;;;;;;;;;;;;17.39;18.20;96875.52;1762573;80;21356;-51
2021/03/25 11:25:03;;;;;;;;;;;;;;;17.42;18.40;96870.48;1781418;80;20242;-52
2021/03/25 11:27:31;;;;;;;;;;;;;;;17.34;18.24;96866.44;1761157;80;20224;-51
2021/03/25 11:30:04;;;;;;;;;;;;;;;17.15;17.99;96873.88;1760838;80;20213;-52
2021/03/25 11:32:37;;;;;;;;;;;;;;;16.78;18.43;96861.03;1760989;80;20547;-52
2021/03/25 11:35:27;;;;;;;;;;;;;;;16.63;18.60;96867.64;1760944;80;21259;-51
2021/03/25 11:37:56;;;;;;;;;;;;;;;16.30;19.15;96867.95;1719385;81;20295;-52
2021/03/25 11:40:38;;;;;;;;;;;;;;;16.03;19.02;96864.67;1760946;81;20240;-51
2021/03/25 11:43:08;;;;;;;;;;;;;;;15.79;19.57;96866.37;1747429;81;21133;-51
2021/03/25 11:45:54;;;;;;;;;;;;;;;15.67;19.28;96860.36;1760836;81;20220;-52
2021/03/25 11:48:26;;;;;;;;;;;;;;;15.55;19.86;96862.75;1760980;81;21823;-51
2021/03/25 11:50:59;;;;;;;;;;;;;;;15.72;19.88;96856.04;1760992;80;20677;-51
2021/03/25 11:53:33;;;;;;;;;;;;;;;15.93;19.32;96854.19;1756760;81;20233;-52
2021/03/25 11:56:02;;;;;;;;;;;;;;;15.87;19.70;96848.67;1760911;81;20288;-51
2021/03/25 11:58:29;;;;;;;;;;;;;;;16.00;19.89;96849.23;1760243;80;20239;-51
2021/03/25 12:01:24;;;;;;;;;;;;;;;16.13;19.71;96847.18;1760961;81;21394;-51
2021/03/25 12:04:01;;;;;;;;;;;;;;;16.23;19.68;96846.37;1760967;81;20724;-51
2021/03/25 12:06:35;;;;;;;;;;;;;;;16.32;19.59;96843.76;1748350;80;20226;-51
2021/03/25 12:09:15;;;;;;;;;;;;;;;16.53;19.13;96838.87;1704691;82;20510;-51
2021/03/25 12:11:48;;;;;;;;;;;;;;;16.70;19.46;96843.38;1753408;80;20276;-51
2021/03/25 12:14:20;;;;;;;;;;;;;;;16.81;19.18;96846.80;1752898;82;20249;-51
2021/03/25 12:16:55;;;;;;;;;;;;;;;17.07;18.97;96841.80;1752809;81;20158;-51
2021/03/25 12:19:24;;;;;;;;;;;;;;;17.31;18.52;96841.81;1749199;82;20500;-51
2021/03/25 12:21:55;;;;;;;;;;;;;;;17.45;18.49;96834.75;1749953;80;20492;-52
2021/03/25 12:24:23;;;;;;;;;;;;;;;17.27;18.83;96828.98;1752858;80;20225;-51
2021/03/25 12:26:50;;;;;;;;;;;;;;;17.24;18.58;96826.65;1753252;80;21449;-51
2021/03/25 12:29:17;;;;;;;;;;;;;;;17.19;18.88;96832.81;1752944;80;20528;-52
2021/03/25 12:31:45;;;;;;;;;;;;;;;17.17;18.75;96828.20;1752874;82;20142;-52
2021/03/25 12:34:15;;;;;;;;;;;;;;;17.15;18.68;96824.06;1748963;80;20221;-52
2021/03/25 12:36:43;;;;;;;;;;;;;;;17.07;18.53;96826.92;1752760;81;20513;-51
2021/03/25 12:39:13;;;;;;;;;;;;;;;17.16;18.37;96827.84;1749837;80;21385;-51
2021/03/25 12:41:44;;;;;;;;;;;;;;;17.36;17.98;96833.02;1751814;80;20493;-52
2021/03/25 12:44:12;;;;;;;;;;;;;;;17.22;18.26;96833.84;1752883;81;20229;-51
2021/03/25 12:46:42;;;;;;;;;;;;;;;17.10;18.52;96837.59;1750083;80;20232;-50
2021/03/25 12:49:10;;;;;;;;;;;;;;;17.03;17.99;96834.72;1752992;82;20764;-51
2021/03/25 12:51:38;;;;;;;;;;;;;;;16.82;18.25;96828.81;1752867;82;21226;-52
2021/03/25 12:54:07;;;;;;;;;;;;;;;16.43;18.48;96833.64;1752807;82;20213;-52
2021/03/25 12:56:35;;;;;;;;;;;;;;;16.29;19.06;96832.25;1753371;80;20232;-52
2021/03/25 12:59:08;;;;;;;;;;;;;;;16.38;19.16;96826.66;1752844;80;20217;-52
2021/03/25 13:01:35;;;;;;;;;;;;;;;16.52;19.17;96826.73;1752932;81;20221;-51
2021/03/25 13:04:04;;;;;;;;;;;;;;;16.72;18.90;96824.91;1752877;82;21460;-50
2021/03/25 13:06:32;;;;;;;;;;;;;;;16.87;18.89;96820.89;1753898;81;21968;-52
2021/03/25 13:09:00;;;;;;;;;;;;;;;16.87;18.78;96818.27;1760850;81;20237;-51
2021/03/25 13:11:29;;;;;;;;;;;;;;;16.77;18.72;96816.13;1761265;80;20232;-52
2021/03/25 13:13:59;;;;;;;;;;;;;;;16.56;19.32;96825.00;1760547;81;20224;-52
2021/03/25 13:16:28;;;;;;;;;;;;;;;16.40;19.28;96822.59;1760890;80;22826;-51
2021/03/25 13:18:56;;;;;;;;;;;;;;;16.17;19.33;96813.23;1760814;81;20216;-51
2021/03/25 13:21:23;;;;;;;;;;;;;;;16.06;19.82;96815.16;1729650;81;20508;-52
2021/03/25 13:23:52;;;;;;;;;;;;;;;16.07;19.60;96805.02;1760829;81;20229;-51
2021/03/25 13:26:21;;;;;;;;;;;;;;;16.01;19.80;96814.27;1760974;80;20279;-53
2021/03/25 13:28:51;;;;;;;;;;;;;;;15.99;19.60;96809.16;1760881;80;20208;-52
2021/03/25 13:31:19;;;;;;;;;;;;;;;15.86;19.33;96807.30;1760849;81;20236;-50